Time;durP1;ratioP1;P1;durP2;ratioP2;P2;SDS_P1;SDS_P2;PMS_P1;PMS_P2;Temp;Humidity;BMP_temperature;BMP_pressure;BME280_temperature;BME280_humidity;BME280_pressure;Samples;Min_cycle;Max_cycle;Signal;HPM_P1;HPM_P2
2023/05/13 00:02:01;;;;;;;10.73;9.65;;;;;;;15.25;73.17;101897.66;5075355;28;20494;-68
2023/05/13 00:04:31;;;;;;;10.85;9.75;;;;;;;15.17;74.32;101889.25;5075480;28;20028;-68
2023/05/13 00:06:56;;;;;;;9.95;9.15;;;;;;;15.25;72.59;101889.63;5074936;28;20468;-68
2023/05/13 00:09:21;;;;;;;10.43;9.40;;;;;;;15.17;72.48;101890.09;5073895;28;20161;-68
2023/05/13 00:11:47;;;;;;;11.05;9.57;;;;;;;15.13;73.51;101891.28;5075388;28;20379;-68
2023/05/13 00:14:12;;;;;;;16.77;9.70;;;;;;;15.18;73.04;101888.31;5075340;28;20024;-68
2023/05/13 00:16:38;;;;;;;10.80;9.75;;;;;;;15.08;73.95;101889.88;5075866;28;20021;-68
2023/05/13 00:19:05;;;;;;;11.80;9.90;;;;;;;14.98;73.71;101889.63;5075036;28;20081;-68
2023/05/13 00:21:32;;;;;;;11.73;9.30;;;;;;;14.97;72.78;101885.19;5073109;28;20058;-68
2023/05/13 00:23:58;;;;;;;10.15;9.25;;;;;;;14.87;73.93;101879.59;5074851;28;20023;-68
2023/05/13 00:26:26;;;;;;;12.88;9.77;;;;;;;14.93;73.28;101889.03;5075050;28;20029;-68
2023/05/13 00:28:51;;;;;;;10.55;9.35;;;;;;;14.83;74.13;101883.44;5075016;28;20386;-68
2023/05/13 00:31:16;;;;;;;10.45;9.45;;;;;;;14.77;74.36;101882.00;5074526;28;20049;-68
2023/05/13 00:33:42;;;;;;;10.75;9.65;;;;;;;14.71;75.16;101882.41;5107479;28;20024;-68
2023/05/13 00:36:11;;;;;;;12.00;9.80;;;;;;;14.74;73.38;101889.38;5074817;28;20095;-68
2023/05/13 00:38:36;;;;;;;10.55;9.48;;;;;;;14.77;74.06;101890.03;5074116;28;20029;-68
2023/05/13 00:41:04;;;;;;;9.60;8.77;;;;;;;14.87;73.53;101882.25;5074518;28;20032;-68
2023/05/13 00:43:30;;;;;;;10.50;9.45;;;;;;;14.90;73.89;101886.56;5074626;28;20429;-68
2023/05/13 00:45:55;;;;;;;13.05;9.75;;;;;;;14.70;73.35;101888.69;5073049;28;20060;-68
2023/05/13 00:48:21;;;;;;;11.43;10.43;;;;;;;14.66;74.30;101889.84;5073072;28;20082;-68
2023/05/13 00:50:48;;;;;;;10.70;9.55;;;;;;;14.73;73.87;101891.16;5107285;28;20020;-68
2023/05/13 00:53:15;;;;;;;10.00;9.13;;;;;;;14.51;74.68;101874.75;5055780;28;20020;-68
2023/05/13 00:55:46;;;;;;;11.45;10.25;;;;;;;14.66;74.48;101892.53;5073559;28;20371;-68
2023/05/13 00:58:12;;;;;;;11.55;9.52;;;;;;;14.53;75.50;101895.13;5074534;28;20027;-68
2023/05/13 01:00:50;;;;;;;15.43;9.40;;;;;;;14.59;75.42;101895.69;5074317;28;20387;-68
2023/05/13 01:03:31;;;;;;;16.45;9.25;;;;;;;14.34;75.67;101891.00;5072165;28;20464;-68
2023/05/13 01:06:15;;;;;;;10.02;9.00;;;;;;;14.43;75.20;101891.28;5074059;28;20024;-68
2023/05/13 01:08:54;;;;;;;10.57;9.23;;;;;;;14.51;74.97;101893.47;5072600;28;20035;-68
2023/05/13 01:11:23;;;;;;;10.02;9.00;;;;;;;14.37;74.94;101893.47;5073872;28;20028;-68
2023/05/13 01:14:04;;;;;;;9.60;8.70;;;;;;;14.48;73.89;101893.69;5106600;28;20111;-68
2023/05/13 01:16:38;;;;;;;9.95;8.95;;;;;;;14.50;73.17;101892.63;5074034;28;20491;-68
2023/05/13 01:19:21;;;;;;;12.13;9.32;;;;;;;14.45;73.87;101884.00;5073509;28;20119;-68
2023/05/13 01:21:53;;;;;;;12.77;9.32;;;;;;;14.34;73.81;101878.47;5053171;28;20370;-68
2023/05/13 01:24:19;;;;;;;9.77;8.88;;;;;;;14.25;74.57;101887.06;5064391;28;20025;-68
2023/05/13 01:26:45;;;;;;;10.77;9.73;;;;;;;14.30;74.72;101891.19;5073918;28;20052;-68
2023/05/13 01:29:10;;;;;;;9.25;8.23;;;;;;;14.18;74.35;101883.06;5072752;28;20070;-68
2023/05/13 01:31:38;;;;;;;11.38;9.13;;;;;;;14.14;73.93;101881.50;5073734;28;20049;-68
2023/05/13 01:34:04;;;;;;;11.48;8.95;;;;;;;14.08;74.89;101891.63;5072426;28;20439;-68
2023/05/13 01:36:32;;;;;;;10.85;8.60;;;;;;;14.07;74.82;101889.91;5072789;28;20536;-68
2023/05/13 01:38:59;;;;;;;10.40;9.35;;;;;;;14.04;74.75;101887.44;5071320;28;20024;-68
2023/05/13 01:41:25;;;;;;;10.38;8.57;;;;;;;14.14;73.65;101890.41;5073070;28;20132;-68
2023/05/13 01:43:52;;;;;;;10.52;8.98;;;;;;;14.29;72.75;101891.25;5072979;28;20522;-68
2023/05/13 01:46:18;;;;;;;9.95;8.95;;;;;;;14.12;73.50;101892.31;5072994;28;20525;-68
2023/05/13 01:48:45;;;;;;;13.30;9.48;;;;;;;14.09;73.62;101895.19;5072799;28;20032;-68
2023/05/13 01:51:13;;;;;;;9.05;8.30;;;;;;;14.03;73.39;101882.16;5071787;28;20051;-68
2023/05/13 01:53:38;;;;;;;9.95;9.05;;;;;;;13.87;74.57;101892.94;5073383;28;20020;-68
2023/05/13 01:56:07;;;;;;;11.80;10.02;;;;;;;13.94;74.01;101894.31;5071902;28;20090;-68
2023/05/13 01:58:33;;;;;;;10.90;8.82;;;;;;;13.83;74.42;101894.94;5071775;28;20029;-68
2023/05/13 02:00:59;;;;;;;12.23;9.88;;;;;;;13.73;74.46;101901.78;5071749;28;20082;-68
2023/05/13 02:03:24;;;;;;;10.30;9.32;;;;;;;13.79;74.94;101888.03;5073147;28;20442;-68
2023/05/13 02:05:50;;;;;;;10.98;9.88;;;;;;;13.79;75.10;101892.53;5073070;28;20024;-68
2023/05/13 02:08:15;;;;;;;10.93;9.93;;;;;;;13.87;74.16;101890.28;5072205;28;20016;-68
2023/05/13 02:10:43;;;;;;;10.50;9.40;;;;;;;13.81;74.64;101899.50;5073202;28;20024;-68
2023/05/13 02:13:08;;;;;;;11.18;10.13;;;;;;;13.90;73.20;101895.44;5072882;28;20020;-67
2023/05/13 02:15:34;;;;;;;11.35;10.23;;;;;;;13.80;74.65;101900.47;5072735;28;20039;-68
2023/05/13 02:17:59;;;;;;;10.95;9.95;;;;;;;13.61;74.42;101883.78;5072607;28;20032;-68
2023/05/13 02:20:25;;;;;;;13.43;9.45;;;;;;;13.80;74.23;101886.25;5072406;28;20387;-68
2023/05/13 02:22:53;;;;;;;11.65;9.45;;;;;;;13.73;73.91;101892.91;5072046;28;20491;-68
2023/05/13 02:25:18;;;;;;;12.00;10.15;;;;;;;13.59;74.48;101888.41;5071474;28;20514;-68
2023/05/13 02:27:46;;;;;;;11.50;10.38;;;;;;;13.59;75.29;101899.94;5072314;28;20056;-69
2023/05/13 02:30:12;;;;;;;10.52;9.48;;;;;;;13.65;74.42;101901.41;5072331;28;20492;-68
2023/05/13 02:32:41;;;;;;;10.70;9.68;;;;;;;13.58;75.14;101900.03;5072523;28;20023;-68
2023/05/13 02:35:07;;;;;;;11.02;10.00;;;;;;;13.59;75.41;101896.41;5071158;28;20032;-68
2023/05/13 02:37:32;;;;;;;11.23;10.23;;;;;;;13.66;74.35;101897.75;5071878;28;20032;-68
2023/05/13 02:39:57;;;;;;;10.40;9.48;;;;;;;13.58;74.34;101898.19;5072276;28;20020;-68
2023/05/13 02:42:26;;;;;;;12.13;10.70;;;;;;;13.58;74.40;101892.84;5072158;28;20056;-68
2023/05/13 02:44:54;;;;;;;11.57;10.40;;;;;;;13.58;74.31;101890.19;5070738;28;20034;-68
2023/05/13 02:47:19;;;;;;;11.75;10.40;;;;;;;13.42;75.46;101894.72;5070485;28;20468;-68
2023/05/13 02:49:45;;;;;;;11.60;10.50;;;;;;;13.37;75.75;101886.97;5072025;28;20028;-68
2023/05/13 02:52:10;;;;;;;12.15;10.82;;;;;;;13.37;75.17;101888.78;5071348;28;20051;-68
2023/05/13 02:54:35;;;;;;;11.07;10.07;;;;;;;13.29;75.59;101883.00;5070953;28;20035;-68
2023/05/13 02:57:01;;;;;;;13.55;10.95;;;;;;;13.43;74.99;101887.56;5072141;28;20444;-68
2023/05/13 02:59:26;;;;;;;12.05;10.98;;;;;;;13.31;75.21;101881.13;5070869;28;20017;-69
2023/05/13 03:01:52;;;;;;;13.88;11.57;;;;;;;13.23;75.53;101878.00;5072131;28;20134;-69
2023/05/13 03:04:17;;;;;;;11.55;10.52;;;;;;;13.19;76.33;101877.31;5071955;28;20074;-69
2023/05/13 03:06:42;;;;;;;13.40;12.10;;;;;;;13.06;76.60;101887.84;5071360;28;20021;-69
2023/05/13 03:09:10;;;;;;;12.10;10.82;;;;;;;13.12;75.90;101879.47;5071701;28;20033;-68
2023/05/13 03:11:35;;;;;;;12.43;10.70;;;;;;;13.28;75.42;101884.81;5071963;28;20062;-68
2023/05/13 03:14:01;;;;;;;13.15;12.02;;;;;;;13.09;76.87;101879.66;5071701;28;20463;-68
2023/05/13 03:16:26;;;;;;;12.98;11.63;;;;;;;13.01;76.81;101892.56;5070545;28;20163;-68
2023/05/13 03:18:54;;;;;;;13.80;11.00;;;;;;;13.18;75.79;101878.28;5071691;28;20023;-68
2023/05/13 03:21:19;;;;;;;12.43;10.95;;;;;;;12.79;76.50;101882.22;5069988;28;20561;-69
2023/05/13 03:23:45;;;;;;;13.38;11.98;;;;;;;12.93;76.45;101876.13;5070700;28;20036;-69
2023/05/13 03:26:10;;;;;;;12.93;11.48;;;;;;;12.94;76.82;101892.06;5071239;28;20379;-69
2023/05/13 03:28:35;;;;;;;13.52;12.02;;;;;;;12.84;76.89;101896.19;5070495;28;20485;-68
2023/05/13 03:31:01;;;;;;;12.13;10.90;;;;;;;12.83;76.87;101883.78;5071585;28;20044;-68
2023/05/13 03:33:28;;;;;;;12.18;10.93;;;;;;;12.80;77.53;101896.47;5071555;28;20063;-68
2023/05/13 03:35:54;;;;;;;13.10;11.85;;;;;;;12.68;77.65;101893.53;5071834;28;20046;-69
2023/05/13 03:38:21;;;;;;;13.18;11.82;;;;;;;12.64;77.46;101905.28;5071063;28;20491;-69
2023/05/13 03:40:49;;;;;;;11.77;10.60;;;;;;;12.55;77.68;101894.25;5071611;28;20024;-69
2023/05/13 03:43:14;;;;;;;11.27;10.18;;;;;;;12.61;78.00;101902.78;5071320;28;20024;-68
2023/05/13 03:45:40;;;;;;;11.45;10.38;;;;;;;12.59;77.57;101893.13;5071849;28;20021;-68
2023/05/13 03:48:06;;;;;;;12.98;11.82;;;;;;;12.67;77.56;101909.59;5070030;28;20463;-69
2023/05/13 03:50:36;;;;;;;15.02;12.23;;;;;;;12.60;78.27;101901.09;5071548;28;20083;-69
2023/05/13 03:53:01;;;;;;;12.13;10.93;;;;;;;12.71;77.55;101898.69;5103608;28;20048;-69
2023/05/13 03:55:26;;;;;;;12.25;11.13;;;;;;;12.42;78.63;101905.59;5071668;28;20130;-68
2023/05/13 03:57:52;;;;;;;13.02;11.82;;;;;;;12.47;78.27;101905.34;5103777;28;20044;-69
2023/05/13 04:00:17;;;;;;;13.43;11.82;;;;;;;12.45;78.83;101912.59;5071492;28;20032;-68
2023/05/13 04:02:45;;;;;;;12.70;11.57;;;;;;;12.38;79.14;101908.50;5103646;28;20036;-68
2023/05/13 04:05:12;;;;;;;13.18;12.18;;;;;;;12.19;79.49;101908.63;5071712;28;20028;-68
2023/05/13 04:07:38;;;;;;;13.52;12.10;;;;;;;12.14;79.85;101908.00;5071097;28;20051;-68
2023/05/13 04:10:04;;;;;;;13.20;11.82;;;;;;;12.18;78.89;101904.25;5070012;28;20052;-68
2023/05/13 04:12:30;;;;;;;13.23;12.02;;;;;;;11.98;79.81;101908.81;5070121;28;20020;-69
2023/05/13 04:14:55;;;;;;;12.68;11.43;;;;;;;12.03;79.45;101901.44;5071379;28;20040;-69
2023/05/13 04:17:20;;;;;;;14.18;12.55;;;;;;;12.25;78.77;101903.84;5070567;28;20064;-69
2023/05/13 04:19:46;;;;;;;13.13;12.13;;;;;;;12.14;79.53;101908.00;5070080;28;20103;-69
2023/05/13 04:22:11;;;;;;;14.27;11.68;;;;;;;12.19;79.45;101908.63;5070326;28;20471;-68
2023/05/13 04:24:37;;;;;;;13.45;11.65;;;;;;;12.10;79.65;101904.66;5071157;28;20111;-68
2023/05/13 04:27:02;;;;;;;13.82;12.50;;;;;;;12.18;79.03;101913.13;5070366;28;20032;-68
2023/05/13 04:29:27;;;;;;;13.40;12.00;;;;;;;12.16;79.16;101908.81;5071256;28;20033;-67
2023/05/13 04:31:53;;;;;;;13.70;12.32;;;;;;;12.24;79.31;101904.78;5069600;28;20059;-68
2023/05/13 04:34:18;;;;;;;13.93;12.45;;;;;;;12.21;79.10;101915.63;5069527;28;20024;-68
2023/05/13 04:36:45;;;;;;;15.48;12.23;;;;;;;12.10;78.96;101920.66;5068852;28;20016;-68
2023/05/13 04:39:10;;;;;;;12.70;11.40;;;;;;;12.19;79.36;101916.63;5072852;28;20130;-68
2023/05/13 04:41:36;;;;;;;14.00;12.73;;;;;;;12.23;78.53;101918.19;5072882;28;20130;-68
2023/05/13 04:44:01;;;;;;;13.90;12.60;;;;;;;11.99;79.51;101918.53;5056149;28;20202;-68
2023/05/13 04:46:27;;;;;;;14.60;12.32;;;;;;;12.17;79.43;101923.84;5072990;28;20017;-68
2023/05/13 04:48:54;;;;;;;13.20;11.82;;;;;;;12.05;80.88;101920.88;5074613;28;20088;-68
2023/05/13 04:51:20;;;;;;;17.40;12.82;;;;;;;11.97;80.19;101911.56;5106376;28;20029;-68
2023/05/13 04:53:45;;;;;;;16.92;13.25;;;;;;;12.00;80.42;101922.06;5072250;28;20554;-68
2023/05/13 04:56:11;;;;;;;13.80;12.38;;;;;;;12.01;79.88;101913.13;5061998;28;20029;-68
2023/05/13 04:58:36;;;;;;;13.95;12.65;;;;;;;12.06;79.91;101929.78;5054544;28;20031;-68
2023/05/13 05:01:01;;;;;;;12.73;11.43;;;;;;;12.19;79.11;101930.84;5090923;28;20240;-68
2023/05/13 05:03:27;;;;;;;18.55;13.65;;;;;;;12.18;80.45;101936.25;5073998;28;20024;-68
2023/05/13 05:05:52;;;;;;;15.10;12.73;;;;;;;12.22;79.56;101928.00;5073658;28;20107;-68
2023/05/13 05:08:20;;;;;;;14.20;12.82;;;;;;;12.21;79.85;101938.78;5072540;28;20017;-69
2023/05/13 05:10:45;;;;;;;14.52;13.02;;;;;;;12.24;80.24;101934.13;5074291;28;20048;-68
2023/05/13 05:13:10;;;;;;;13.48;12.18;;;;;;;12.38;79.41;101938.75;5074329;28;20079;-68
2023/05/13 05:15:36;;;;;;;15.00;12.50;;;;;;;12.36;79.43;101937.97;5072844;28;20127;-68
2023/05/13 05:18:05;;;;;;;14.68;13.20;;;;;;;12.35;79.13;101932.69;5074064;28;20033;-68
2023/05/13 05:20:30;;;;;;;13.23;11.90;;;;;;;12.53;78.94;101945.06;5074315;28;20031;-69
2023/05/13 05:22:56;;;;;;;14.07;12.55;;;;;;;12.53;79.11;101949.53;5073673;28;20017;-68
2023/05/13 05:25:23;;;;;;;14.70;13.35;;;;;;;12.62;79.04;101947.25;5074065;28;20043;-69
2023/05/13 05:27:48;;;;;;;15.48;13.93;;;;;;;12.64;78.73;101934.66;5073851;28;20425;-69
2023/05/13 05:30:14;;;;;;;14.00;12.65;;;;;;;12.71;78.75;101948.56;5072103;28;20036;-68
2023/05/13 05:32:39;;;;;;;15.52;13.93;;;;;;;12.67;78.07;101952.31;5072831;28;20016;-68
2023/05/13 05:35:05;;;;;;;14.95;13.40;;;;;;;12.68;79.04;101954.91;5072667;28;20043;-68
2023/05/13 05:37:30;;;;;;;14.68;13.27;;;;;;;12.62;78.90;101946.38;5073468;28;20016;-69
2023/05/13 05:39:56;;;;;;;21.65;13.95;;;;;;;12.73;79.16;101959.97;5073799;28;20048;-69
2023/05/13 05:42:23;;;;;;;14.77;13.50;;;;;;;12.82;78.03;101961.28;5073449;28;20025;-68
2023/05/13 05:44:49;;;;;;;15.63;13.55;;;;;;;12.81;78.56;101963.09;5073625;28;20024;-68
2023/05/13 05:47:14;;;;;;;18.17;13.13;;;;;;;12.77;79.19;101966.91;5072209;28;20020;-68
2023/05/13 05:49:39;;;;;;;15.60;13.75;;;;;;;12.89;78.85;101963.56;5073116;28;20024;-68
2023/05/13 05:52:05;;;;;;;18.02;13.98;;;;;;;12.91;78.60;101968.78;5072946;28;20471;-68
2023/05/13 05:54:30;;;;;;;16.77;13.85;;;;;;;13.07;78.81;101963.50;5073621;28;20101;-68
2023/05/13 05:56:56;;;;;;;14.93;13.40;;;;;;;13.23;78.58;101964.34;5073493;28;20028;-68
2023/05/13 05:59:21;;;;;;;16.13;12.32;;;;;;;13.35;76.07;101966.38;5073068;28;20024;-68
2023/05/13 06:01:49;;;;;;;14.40;13.07;;;;;;;13.31;77.35;101962.13;5105823;28;20411;-68
2023/05/13 06:04:16;;;;;;;15.73;13.73;;;;;;;13.35;77.61;101966.38;5105874;28;20024;-68
2023/05/13 06:06:42;;;;;;;15.57;14.00;;;;;;;13.41;77.26;101959.78;5073011;28;20020;-68
2023/05/13 06:09:07;;;;;;;15.48;13.48;;;;;;;13.38;77.04;101962.63;5071992;28;20035;-68
2023/05/13 06:11:33;;;;;;;17.30;13.10;;;;;;;13.32;77.12;101965.66;5073145;28;20475;-68
2023/05/13 06:13:58;;;;;;;15.40;14.00;;;;;;;13.31;76.96;101958.59;5072892;28;20043;-68
2023/05/13 06:16:23;;;;;;;14.35;13.00;;;;;;;13.47;76.07;101964.81;5073018;28;20056;-68
2023/05/13 06:18:49;;;;;;;15.80;14.23;;;;;;;13.43;77.48;101975.75;5105659;28;20028;-68
2023/05/13 06:21:14;;;;;;;14.95;13.50;;;;;;;13.55;77.45;101973.22;5105453;28;20025;-68
2023/05/13 06:23:40;;;;;;;17.98;14.13;;;;;;;13.54;77.45;101970.66;5072597;28;20553;-68
2023/05/13 06:26:07;;;;;;;16.17;14.52;;;;;;;13.50;76.50;101967.31;5072654;28;20059;-68
2023/05/13 06:28:35;;;;;;;15.75;14.18;;;;;;;13.63;77.47;101972.78;5072563;28;20028;-68
2023/05/13 06:31:00;;;;;;;18.17;13.63;;;;;;;13.74;76.08;101973.03;5072762;28;20064;-68
2023/05/13 06:33:26;;;;;;;20.30;14.48;;;;;;;13.93;75.64;101982.66;5105072;28;20447;-68
2023/05/13 06:35:52;;;;;;;14.85;13.45;;;;;;;13.92;75.63;101981.78;5105341;28;20070;-68
2023/05/13 06:38:20;;;;;;;16.70;14.13;;;;;;;14.00;75.29;101981.31;5071953;28;20387;-68
2023/05/13 06:40:45;;;;;;;16.63;14.77;;;;;;;13.90;75.55;101975.66;5105009;28;20028;-68
2023/05/13 06:43:15;;;;;;;14.93;13.57;;;;;;;13.86;76.02;101988.38;5072436;28;20021;-68
2023/05/13 06:45:40;;;;;;;;;;;;;;;14.08;75.97;101987.09;5105822;28;20028;-68
2023/05/13 06:48:06;;;;;;;18.10;15.02;;;;;;;14.25;75.75;101988.75;5070829;28;19954;-68
2023/05/13 06:50:31;;;;;;;16.73;13.65;;;;;;;14.38;75.70;101991.53;5072484;28;20028;-68
2023/05/13 06:52:57;;;;;;;15.70;13.70;;;;;;;14.58;74.93;101990.38;5104104;28;20019;-68
2023/05/13 06:55:22;;;;;;;16.27;14.68;;;;;;;14.69;74.85;101988.75;5072143;28;20039;-68
2023/05/13 06:57:48;;;;;;;19.88;14.23;;;;;;;14.90;73.28;101983.00;5072233;28;20020;-68
2023/05/13 07:00:14;;;;;;;15.95;14.25;;;;;;;14.87;72.88;101986.72;5072149;28;20468;-68
2023/05/13 07:02:40;;;;;;;16.58;13.20;;;;;;;14.83;72.35;101984.34;5104749;28;20029;-69
2023/05/13 07:05:09;;;;;;;17.23;14.23;;;;;;;14.77;72.32;101989.13;5072146;28;20028;-68
2023/05/13 07:07:35;;;;;;;15.38;13.80;;;;;;;14.59;72.98;101994.75;5104295;28;20032;-68
2023/05/13 07:10:02;;;;;;;17.00;13.63;;;;;;;14.54;74.14;101998.59;5071986;28;20027;-68
2023/05/13 07:12:28;;;;;;;16.27;14.68;;;;;;;14.68;73.71;101997.75;5071992;28;20092;-68
2023/05/13 07:14:53;;;;;;;16.25;13.50;;;;;;;14.61;72.61;101993.69;5104769;28;20124;-68
2023/05/13 07:17:18;;;;;;;15.38;13.77;;;;;;;14.50;73.77;101989.00;5071912;28;20029;-68
2023/05/13 07:19:44;;;;;;;18.02;13.88;;;;;;;14.57;73.62;101988.66;5070857;28;20071;-68
2023/05/13 07:22:10;;;;;;;14.75;13.35;;;;;;;14.61;73.78;101998.19;5071169;28;20025;-68
2023/05/13 07:24:35;;;;;;;15.93;14.30;;;;;;;14.47;75.53;101988.31;5104384;28;20032;-68
2023/05/13 07:27:03;;;;;;;21.80;14.60;;;;;;;14.51;74.64;101988.06;5071611;28;20463;-68
2023/05/13 07:29:35;;;;;;;16.65;14.93;;;;;;;14.66;74.89;101990.75;5071772;28;20024;-68
2023/05/13 07:32:04;;;;;;;15.80;14.25;;;;;;;14.88;74.57;101987.59;5071595;28;20151;-68
2023/05/13 07:34:30;;;;;;;16.95;13.70;;;;;;;14.97;74.07;101973.59;5071818;28;20028;-68
2023/05/13 07:36:55;;;;;;;15.13;13.63;;;;;;;15.00;73.51;101981.47;5071284;28;20024;-68
2023/05/13 07:39:23;;;;;;;18.17;14.07;;;;;;;15.19;73.33;101963.25;5104038;28;20052;-68
2023/05/13 07:41:48;;;;;;;14.55;13.25;;;;;;;15.64;71.93;101993.34;5070269;28;20395;-68
2023/05/13 07:44:14;;;;;;;14.75;13.35;;;;;;;15.75;71.94;101981.09;5071559;28;20020;-68
2023/05/13 07:46:39;;;;;;;15.75;13.88;;;;;;;16.03;70.40;101997.06;5071585;28;20028;-68
2023/05/13 07:49:07;;;;;;;14.18;12.85;;;;;;;16.23;68.27;101992.16;5103820;28;20027;-68
2023/05/13 07:51:33;;;;;;;16.25;12.65;;;;;;;16.48;68.52;101997.56;5071154;28;20052;-68
2023/05/13 07:54:03;;;;;;;17.75;13.13;;;;;;;16.59;66.79;101996.81;5071389;28;20103;-68
2023/05/13 07:56:29;;;;;;;14.68;12.88;;;;;;;16.68;67.60;101998.84;5071505;28;20017;-68
2023/05/13 07:58:55;;;;;;;14.70;13.20;;;;;;;16.78;67.17;101986.50;5071447;28;20034;-68
2023/05/13 08:01:25;;;;;;;16.98;13.10;;;;;;;16.94;66.57;101988.09;5071321;28;20421;-68
2023/05/13 08:03:50;;;;;;;13.70;12.23;;;;;;;17.16;65.16;101993.66;5071178;28;20107;-67
2023/05/13 08:06:16;;;;;;;13.55;12.23;;;;;;;17.17;63.20;101997.19;5071111;28;20425;-68
2023/05/13 08:08:41;;;;;;;13.50;12.32;;;;;;;17.29;63.15;101996.28;5071209;28;20020;-68
2023/05/13 08:11:06;;;;;;;16.02;11.82;;;;;;;17.35;63.57;101998.53;5086843;28;20180;-67
2023/05/13 08:13:32;;;;;;;13.65;12.35;;;;;;;17.46;63.15;101997.75;5106264;28;20025;-68
2023/05/13 08:16:02;;;;;;;15.27;12.10;;;;;;;17.48;63.88;101998.50;5107750;28;20074;-68
2023/05/13 08:18:29;;;;;;;14.32;12.57;;;;;;;17.56;63.01;101995.22;5075014;28;20044;-68
2023/05/13 08:20:54;;;;;;;15.25;13.05;;;;;;;17.86;63.24;101998.38;5055049;28;20031;-68
2023/05/13 08:23:24;;;;;;;19.20;11.93;;;;;;;17.92;62.48;101997.03;5054200;28;20029;-68
2023/05/13 08:25:49;;;;;;;19.13;13.27;;;;;;;18.08;62.56;101997.56;5055139;28;20025;-67
2023/05/13 08:28:15;;;;;;;13.15;11.88;;;;;;;18.20;61.89;101994.91;5055027;28;20487;-67
2023/05/13 08:30:43;;;;;;;13.52;12.13;;;;;;;18.21;61.65;101992.13;5055034;28;20049;-67
2023/05/13 08:33:10;;;;;;;12.77;11.48;;;;;;;18.20;62.49;101987.69;5054859;28;20021;-67
2023/05/13 08:35:38;;;;;;;16.98;11.80;;;;;;;18.27;62.56;101991.66;5055045;28;20032;-67
2023/05/13 08:38:04;;;;;;;13.52;12.32;;;;;;;18.31;63.16;101993.13;5054018;28;20474;-65
2023/05/13 08:40:31;;;;;;;13.18;11.82;;;;;;;18.26;61.23;101987.22;5053515;28;20055;-67
2023/05/13 08:43:01;;;;;;;13.48;12.25;;;;;;;18.39;62.02;102000.63;5054587;28;20503;-67
2023/05/13 08:45:32;;;;;;;13.98;12.20;;;;;;;18.65;60.96;101995.00;5087050;28;20404;-67
2023/05/13 08:48:00;;;;;;;15.05;11.25;;;;;;;18.82;61.22;101999.94;5105764;28;20024;-67
2023/05/13 08:50:27;;;;;;;12.02;10.93;;;;;;;18.96;59.48;102006.94;5074805;28;20025;-67
2023/05/13 08:52:53;;;;;;;17.38;11.43;;;;;;;19.17;58.97;101996.25;5106452;28;20384;-68
2023/05/13 08:55:19;;;;;;;12.50;11.23;;;;;;;19.20;58.39;101994.16;5074627;28;20024;-67
2023/05/13 08:57:44;;;;;;;16.45;11.48;;;;;;;19.13;59.03;102001.03;5074502;28;20036;-67
2023/05/13 09:00:13;;;;;;;13.68;12.38;;;;;;;18.99;58.67;101987.81;5074650;28;20497;-67
2023/05/13 09:02:40;;;;;;;13.77;11.70;;;;;;;19.23;58.36;101983.13;5074515;28;20028;-67
2023/05/13 09:05:07;;;;;;;13.05;11.85;;;;;;;19.34;60.36;101992.19;5074273;28;20498;-67
2023/05/13 09:07:36;;;;;;;13.15;11.07;;;;;;;19.50;59.13;101990.81;5073749;28;20029;-67
2023/05/13 09:10:03;;;;;;;13.65;12.30;;;;;;;19.59;59.10;101988.31;5074357;28;20024;-67
2023/05/13 09:12:44;;;;;;;11.93;10.85;;;;;;;19.79;56.88;101990.22;5074333;28;20021;-67
2023/05/13 09:15:12;;;;;;;13.30;11.18;;;;;;;19.84;57.21;101981.75;5074111;28;20029;-67
2023/05/13 09:17:45;;;;;;;13.88;11.23;;;;;;;20.02;56.41;101991.00;5090175;28;20032;-67
2023/05/13 09:20:13;;;;;;;12.20;11.00;;;;;;;20.09;54.21;101996.72;5106093;28;20028;-66
2023/05/13 09:22:58;;;;;;;13.93;11.23;;;;;;;20.28;54.60;101994.16;5070745;28;20023;-66
2023/05/13 09:25:24;;;;;;;13.80;11.20;;;;;;;20.27;53.30;101994.31;5070648;28;20016;-66
2023/05/13 09:27:56;;;;;;;12.70;10.93;;;;;;;20.38;54.05;101986.13;5073506;28;20024;-66
2023/05/13 09:30:22;;;;;;;11.98;10.88;;;;;;;20.62;54.25;101983.19;5085503;28;20120;-65
2023/05/13 09:33:03;;;;;;;15.63;11.70;;;;;;;20.65;55.59;101985.63;5053811;28;20017;-66
2023/05/13 09:35:30;;;;;;;14.25;10.73;;;;;;;20.67;52.57;101980.91;5085731;28;20369;-65
2023/05/13 09:37:56;;;;;;;11.65;10.20;;;;;;;20.85;53.96;101973.91;5085520;28;20028;-66
2023/05/13 09:40:21;;;;;;;14.10;10.27;;;;;;;20.89;52.54;101976.31;5053681;28;20029;-66
2023/05/13 09:42:49;;;;;;;12.30;10.25;;;;;;;21.08;52.80;101971.81;5053569;28;20017;-66
2023/05/13 09:45:19;;;;;;;10.90;9.40;;;;;;;21.22;50.50;101975.16;5053597;28;20017;-66
2023/05/13 09:47:51;;;;;;;12.68;10.43;;;;;;;21.30;51.30;101975.31;5070390;28;20065;-66
2023/05/13 09:50:16;;;;;;;10.82;9.70;;;;;;;21.46;51.97;101962.09;5105447;28;20028;-65
2023/05/13 09:52:45;;;;;;;11.00;9.50;;;;;;;21.68;51.79;101965.56;5073174;28;20025;-65
2023/05/13 09:55:10;;;;;;;11.75;10.20;;;;;;;21.87;52.22;101970.13;5073462;28;20028;-65
2023/05/13 09:57:36;;;;;;;13.40;10.23;;;;;;;22.03;49.81;101973.09;5073443;28;20032;-65
2023/05/13 10:00:07;;;;;;;13.68;9.98;;;;;;;22.11;51.14;101966.94;5073936;28;20375;-66
2023/05/13 10:02:33;;;;;;;12.65;9.73;;;;;;;22.15;48.48;101962.97;5070113;28;20500;-65
2023/05/13 10:04:59;;;;;;;13.20;9.70;;;;;;;22.21;48.35;101967.84;5070549;28;20033;-66
2023/05/13 10:07:26;;;;;;;9.80;8.90;;;;;;;22.31;48.37;101970.53;5070929;28;20553;-65
2023/05/13 10:09:53;;;;;;;11.52;8.90;;;;;;;22.47;47.58;101959.91;5070357;28;20074;-65
2023/05/13 10:12:24;;;;;;;11.63;8.98;;;;;;;22.55;47.96;101954.59;5067295;28;20123;-66
2023/05/13 10:14:51;;;;;;;10.82;8.40;;;;;;;22.75;46.90;101958.09;5072519;28;20120;-65
2023/05/13 10:17:19;;;;;;;9.90;8.60;;;;;;;22.97;48.37;101958.72;5072673;28;20108;-66
2023/05/13 10:19:45;;;;;;;13.43;9.23;;;;;;;22.93;48.08;101949.16;5072485;28;20310;-65
2023/05/13 10:22:13;;;;;;;11.82;8.50;;;;;;;23.13;46.08;101948.09;5089361;28;20021;-65
2023/05/13 10:24:39;;;;;;;11.38;8.60;;;;;;;23.18;46.83;101951.22;5053359;28;20021;-66
2023/05/13 10:27:05;;;;;;;15.27;8.18;;;;;;;23.12;46.14;101941.81;5069678;28;20392;-65
2023/05/13 10:29:36;;;;;;;13.40;8.45;;;;;;;23.18;45.04;101944.91;5071541;28;20020;-65
2023/05/13 10:32:03;;;;;;;8.18;7.22;;;;;;;23.15;45.53;101951.50;5067093;28;20102;-65
2023/05/13 10:34:33;;;;;;;10.05;8.60;;;;;;;23.32;45.82;101942.53;5070426;28;20035;-66
2023/05/13 10:37:49;;;;;;;9.68;7.35;;;;;;;23.63;45.30;101942.16;5068696;28;20515;-66
2023/05/13 10:40:52;;;;;;;13.57;7.15;;;;;;;23.73;44.09;101948.38;5070583;28;20467;-63
2023/05/13 10:43:18;;;;;;;10.40;7.45;;;;;;;23.79;44.78;101949.63;5060280;28;20032;-65
2023/05/13 10:45:48;;;;;;;8.98;7.90;;;;;;;23.94;45.24;101934.47;5068521;28;20028;-64
2023/05/13 10:48:14;;;;;;;10.15;8.25;;;;;;;23.98;46.01;101945.88;5070589;28;20066;-64
2023/05/13 10:50:59;;;;;;;11.07;6.80;;;;;;;24.08;42.94;101938.47;5072600;28;20028;-63
2023/05/13 10:53:36;;;;;;;9.07;6.00;;;;;;;24.24;43.25;101943.19;5071367;28;20030;-63
2023/05/13 10:56:06;;;;;;;7.72;6.40;;;;;;;24.33;41.25;101944.09;5052331;28;20032;-65
2023/05/13 10:58:36;;;;;;;7.53;5.32;;;;;;;24.26;40.26;101939.28;5052218;28;20398;-65
2023/05/13 11:01:15;;;;;;;11.55;5.70;;;;;;;24.52;40.84;101945.75;5084571;28;20021;-67
2023/05/13 11:03:51;;;;;;;9.90;5.28;;;;;;;24.62;38.82;101941.91;5050984;28;20025;-66
2023/05/13 11:06:22;;;;;;;9.75;5.72;;;;;;;24.65;39.00;101941.59;5051707;28;20031;-63
2023/05/13 11:08:50;;;;;;;8.98;5.05;;;;;;;24.61;38.96;101939.34;5056045;28;20032;-65
2023/05/13 11:11:30;;;;;;;6.93;5.22;;;;;;;24.84;39.16;101935.03;5071484;28;20040;-65
2023/05/13 11:13:58;;;;;;;7.15;5.07;;;;;;;25.01;37.96;101930.50;5069999;28;20028;-65